createdAt,value
2023-08-12T00:00:46.199Z,78.75
2023-08-12T00:03:34.321Z,77.67
2023-08-12T00:06:02.720Z,80.30
2023-08-12T00:08:30.158Z,80.62
2023-08-12T00:10:57.602Z,79.47
2023-08-12T00:13:25.618Z,78.06
2023-08-12T00:15:54.210Z,75.40
2023-08-12T00:18:23.107Z,73.52
2023-08-12T00:20:57.688Z,72.90
2023-08-12T00:23:26.148Z,73.66
2023-08-12T00:25:53.551Z,74.45
2023-08-12T00:28:21.206Z,75.65
2023-08-12T00:30:50.120Z,77.24
2023-08-12T00:33:18.981Z,77.72
2023-08-12T00:35:46.663Z,79.72
2023-08-12T00:38:14.493Z,79.47
2023-08-12T00:40:42.547Z,79.39
2023-08-12T00:43:10.964Z,79.52
2023-08-12T00:45:38.413Z,78.87
2023-08-12T00:48:06.819Z,78.26
2023-08-12T00:50:40.569Z,76.63
2023-08-12T00:53:09.845Z,76.40
2023-08-12T00:55:38.266Z,77.20
2023-08-12T00:58:05.855Z,76.56
2023-08-12T01:00:34.984Z,76.02
2023-08-12T01:03:04.296Z,76.66
2023-08-12T01:05:31.878Z,77.24
2023-08-12T01:08:00.098Z,76.74
2023-08-12T01:10:34.956Z,75.54
2023-08-12T01:13:28.313Z,76.06
2023-08-12T01:15:57.411Z,75.69
2023-08-12T01:18:25.947Z,76.49
2023-08-12T01:20:58.996Z,76.81
2023-08-12T01:23:26.727Z,80.49
2023-08-12T01:25:54.809Z,81.69
2023-08-12T01:28:22.064Z,80.26
2023-08-12T01:31:05.588Z,79.35
2023-08-12T01:33:57.703Z,79.90
2023-08-12T01:36:27.910Z,80.62
2023-08-12T01:39:01.421Z,81.05
2023-08-12T01:41:30.153Z,80.64
2023-08-12T01:43:58.298Z,79.66
2023-08-12T01:46:26.568Z,78.82
2023-08-12T01:48:54.238Z,79.72
2023-08-12T01:51:21.640Z,80.30
2023-08-12T01:53:48.892Z,80.04
2023-08-12T01:56:16.452Z,80.27
2023-08-12T01:58:43.621Z,80.86
2023-08-12T02:01:10.942Z,80.35
2023-08-12T02:03:39.538Z,80.01
2023-08-12T02:06:08.428Z,80.10
2023-08-12T02:08:35.772Z,79.32
2023-08-12T02:11:03.362Z,78.90
2023-08-12T02:13:31.280Z,78.11
2023-08-12T02:15:58.705Z,76.61
2023-08-12T02:18:26.172Z,77.86
2023-08-12T02:20:53.369Z,79.33
2023-08-12T02:23:20.508Z,79.45
2023-08-12T02:25:48.250Z,79.74
2023-08-12T02:28:16.584Z,79.96
2023-08-12T02:30:45.056Z,79.50
2023-08-12T02:33:12.343Z,79.12
2023-08-12T02:35:40.997Z,79.26
2023-08-12T02:38:08.924Z,79.92
2023-08-12T02:40:36.851Z,79.85
2023-08-12T02:43:05.233Z,80.56
2023-08-12T02:45:36.449Z,80.96
2023-08-12T02:48:04.678Z,79.69
2023-08-12T02:50:32.549Z,79.33
2023-08-12T02:52:59.715Z,78.72
2023-08-12T02:55:28.083Z,78.02
2023-08-12T02:57:55.944Z,78.05
2023-08-12T03:00:25.474Z,79.34
2023-08-12T03:02:52.768Z,79.61
2023-08-12T03:05:21.733Z,79.79
2023-08-12T03:07:50.581Z,80.42
2023-08-12T03:10:19.149Z,80.94
2023-08-12T03:12:46.689Z,81.03
2023-08-12T03:15:14.502Z,79.87
2023-08-12T03:17:42.761Z,79.70
2023-08-12T03:20:17.448Z,80.27
2023-08-12T03:22:44.993Z,80.41
2023-08-12T03:25:15.520Z,80.01
2023-08-12T03:27:43.376Z,79.39
2023-08-12T03:30:11.448Z,79.59
2023-08-12T03:32:39.839Z,79.56
2023-08-12T03:35:07.599Z,78.85
2023-08-12T03:37:35.903Z,78.99
2023-08-12T03:40:04.356Z,79.53
2023-08-12T03:42:32.084Z,78.84
2023-08-12T03:44:59.752Z,79.98
2023-08-12T03:47:30.660Z,79.68
2023-08-12T03:49:58.024Z,79.83
2023-08-12T03:52:27.251Z,79.80
2023-08-12T03:54:55.477Z,80.04
2023-08-12T03:57:22.745Z,80.68
2023-08-12T03:59:50.140Z,81.34
2023-08-12T04:02:17.338Z,80.78
2023-08-12T04:04:47.015Z,79.41
2023-08-12T04:07:14.922Z,80.50
2023-08-12T04:09:42.566Z,82.15
2023-08-12T04:12:10.877Z,81.78
2023-08-12T04:14:41.477Z,80.75
2023-08-12T04:17:09.698Z,80.79
2023-08-12T04:19:37.623Z,80.27
2023-08-12T04:22:06.315Z,79.07
2023-08-12T04:24:34.676Z,77.89
2023-08-12T04:27:02.355Z,77.57
2023-08-12T04:29:30.349Z,76.52
2023-08-12T04:31:57.675Z,75.67
2023-08-12T04:34:24.952Z,75.00
2023-08-12T04:36:53.106Z,75.44
2023-08-12T04:39:20.416Z,76.16
2023-08-12T04:41:49.016Z,76.29
2023-08-12T04:44:16.686Z,75.09
2023-08-12T04:46:44.928Z,74.47
2023-08-12T04:49:12.771Z,74.66
2023-08-12T04:51:42.600Z,75.28
2023-08-12T04:54:10.780Z,76.02
2023-08-12T04:56:38.779Z,75.49
2023-08-12T04:59:07.505Z,74.96
2023-08-12T05:01:42.929Z,73.86
2023-08-12T05:04:19.029Z,74.23
2023-08-12T05:06:52.956Z,71.08
2023-08-12T05:09:20.707Z,72.79
2023-08-12T05:12:02.323Z,73.48
2023-08-12T05:14:29.993Z,75.35
2023-08-12T05:16:57.400Z,74.64
2023-08-12T05:19:34.680Z,72.15
2023-08-12T05:22:02.001Z,72.29
2023-08-12T05:24:29.259Z,73.39
2023-08-12T05:26:57.918Z,72.72
2023-08-12T05:29:25.514Z,71.87
2023-08-12T05:31:57.110Z,72.70
2023-08-12T05:34:27.808Z,73.59
2023-08-12T05:36:55.042Z,72.70
2023-08-12T05:39:22.588Z,72.93
2023-08-12T05:41:52.715Z,71.24
2023-08-12T05:44:25.669Z,71.68
2023-08-12T05:46:55.742Z,69.83
2023-08-12T05:49:39.592Z,66.64
2023-08-12T05:58:58.556Z,66.18
2023-08-12T06:01:26.347Z,67.64
2023-08-12T06:04:12.950Z,65.14
2023-08-12T06:06:53.618Z,65.78
2023-08-12T06:09:23.358Z,63.31
2023-08-12T06:11:50.627Z,62.42
2023-08-12T06:14:19.104Z,61.71
2023-08-12T06:16:46.426Z,61.97
2023-08-12T06:19:13.641Z,61.40
2023-08-12T06:21:40.818Z,59.81
2023-08-12T06:24:08.078Z,59.47
2023-08-12T06:26:35.417Z,58.62
2023-08-12T06:29:05.688Z,59.66
2023-08-12T06:31:33.488Z,60.11
2023-08-12T06:34:01.818Z,61.16
2023-08-12T06:36:29.726Z,60.53
2023-08-12T06:38:57.923Z,60.19
2023-08-12T06:41:25.360Z,60.25
2023-08-12T06:43:52.950Z,60.49
2023-08-12T06:46:21.237Z,60.52
2023-08-12T06:48:49.134Z,60.46
2023-08-12T06:51:16.444Z,60.02
2023-08-12T06:53:43.926Z,59.52
2023-08-12T06:56:12.169Z,57.69
2023-08-12T06:58:39.624Z,56.48
2023-08-12T07:01:06.998Z,56.98
2023-08-12T07:03:35.017Z,58.22
2023-08-12T07:06:04.039Z,54.80
2023-08-12T07:08:33.141Z,55.83
2023-08-12T07:11:00.520Z,55.60
2023-08-12T07:13:29.343Z,54.78
2023-08-12T07:15:58.012Z,56.13
2023-08-12T07:18:25.955Z,52.66
2023-08-12T07:20:53.524Z,53.11
2023-08-12T07:23:23.167Z,52.60
2023-08-12T07:25:51.249Z,51.98
2023-08-12T07:28:18.490Z,53.12
2023-08-12T07:30:46.439Z,51.36
2023-08-12T07:33:21.022Z,53.08
2023-08-12T07:35:48.315Z,53.97
2023-08-12T07:38:15.878Z,52.59
2023-08-12T07:40:44.199Z,51.73
2023-08-12T07:43:11.510Z,50.08
2023-08-12T07:45:51.390Z,51.01
2023-08-12T07:48:21.921Z,49.60
2023-08-12T07:50:56.926Z,48.27
2023-08-12T07:53:24.306Z,47.29
2023-08-12T07:55:51.921Z,46.72
2023-08-12T07:58:19.653Z,47.49
2023-08-12T08:00:47.047Z,45.35
2023-08-12T08:03:15.930Z,45.66
2023-08-12T08:05:46.153Z,46.39
2023-08-12T08:08:16.665Z,46.39
2023-08-12T08:10:44.016Z,45.71
2023-08-12T08:13:11.232Z,46.01
2023-08-12T08:15:38.940Z,46.21
2023-08-12T08:18:08.334Z,45.54
2023-08-12T08:20:36.015Z,45.32
2023-08-12T08:23:03.468Z,44.61
2023-08-12T08:25:31.835Z,44.06
2023-08-12T08:27:59.424Z,43.32
2023-08-12T08:30:27.091Z,41.84
2023-08-12T08:32:54.613Z,42.62
2023-08-12T08:35:22.786Z,40.96
2023-08-12T08:37:50.727Z,39.55
2023-08-12T08:40:19.985Z,40.61
2023-08-12T08:42:55.560Z,40.39
2023-08-12T08:45:24.199Z,39.00
2023-08-12T08:47:53.273Z,37.62
2023-08-12T08:50:22.313Z,37.52
2023-08-12T08:52:52.337Z,37.46
2023-08-12T08:55:22.672Z,38.97
2023-08-12T08:57:51.207Z,37.84
2023-08-12T09:00:20.532Z,37.77
2023-08-12T09:02:50.673Z,37.56
2023-08-12T09:05:21.077Z,37.72
2023-08-12T09:07:51.249Z,37.17
2023-08-12T09:10:21.505Z,36.76
2023-08-12T09:12:49.102Z,37.11
2023-08-12T09:15:17.833Z,36.47
2023-08-12T09:17:45.387Z,36.74
2023-08-12T09:20:13.251Z,37.27
2023-08-12T09:22:42.009Z,36.93
2023-08-12T09:25:11.191Z,36.61
2023-08-12T09:27:39.040Z,36.83
2023-08-12T09:30:08.270Z,37.06
2023-08-12T09:32:35.880Z,37.53
2023-08-12T09:35:04.578Z,37.29
2023-08-12T09:37:32.636Z,36.35
2023-08-12T09:39:59.956Z,35.91
2023-08-12T09:42:28.656Z,35.69
2023-08-12T09:44:57.680Z,36.73
2023-08-12T09:47:28.100Z,36.04
2023-08-12T09:49:55.676Z,35.70
2023-08-12T09:52:23.130Z,35.64
2023-08-12T09:54:55.685Z,36.00
2023-08-12T09:57:28.452Z,35.90
2023-08-12T09:59:58.441Z,34.81
2023-08-12T10:02:27.953Z,34.57
2023-08-12T10:04:57.534Z,36.18
2023-08-12T10:07:26.130Z,34.82
2023-08-12T10:09:54.473Z,34.33
2023-08-12T10:12:22.845Z,34.04
2023-08-12T10:14:50.045Z,33.61
2023-08-12T10:17:29.587Z,33.76
2023-08-12T10:20:08.442Z,34.16
2023-08-12T10:22:37.099Z,35.27
2023-08-12T10:25:04.745Z,35.22
2023-08-12T10:27:32.099Z,34.18
2023-08-12T10:30:00.125Z,34.60
2023-08-12T10:32:27.827Z,33.88
2023-08-12T10:34:57.187Z,34.20
2023-08-12T10:37:26.197Z,34.77
2023-08-12T10:39:56.385Z,35.48
2023-08-12T10:42:48.958Z,34.58
2023-08-12T10:45:17.834Z,34.89
2023-08-12T10:48:21.581Z,33.53
2023-08-12T10:50:52.979Z,33.33
2023-08-12T10:53:33.817Z,32.30
2023-08-12T10:56:03.574Z,33.00
2023-08-12T10:58:42.092Z,32.95
2023-08-12T11:01:17.443Z,32.21
2023-08-12T11:03:45.299Z,32.47
2023-08-12T11:06:13.213Z,32.32
2023-08-12T11:08:48.289Z,31.86
2023-08-12T11:11:26.013Z,31.54
2023-08-12T11:14:00.373Z,32.65
2023-08-12T11:16:38.110Z,32.99
2023-08-12T11:19:05.551Z,31.12
2023-08-12T11:21:34.320Z,30.87
2023-08-12T11:24:03.176Z,31.25
2023-08-12T11:26:31.102Z,32.96
2023-08-12T11:28:58.308Z,32.45
2023-08-12T11:31:26.598Z,30.98
2023-08-12T11:33:54.592Z,30.96
2023-08-12T11:36:21.803Z,30.68
2023-08-12T11:38:49.993Z,30.77
2023-08-12T11:41:23.774Z,31.57
2023-08-12T11:43:50.906Z,30.51
2023-08-12T11:46:18.097Z,31.60
2023-08-12T11:48:45.340Z,32.06
2023-08-12T11:51:12.969Z,32.41
2023-08-12T11:53:40.508Z,31.78
2023-08-12T11:56:07.832Z,31.90
2023-08-12T11:58:51.362Z,31.77
2023-08-12T12:01:20.069Z,30.76
2023-08-12T12:03:52.152Z,30.71
2023-08-12T12:06:36.966Z,30.92
2023-08-12T12:09:11.294Z,30.23
2023-08-12T12:11:39.104Z,30.35
2023-08-12T12:14:08.353Z,30.10
2023-08-12T12:16:40.450Z,30.93
2023-08-12T12:19:21.202Z,31.20
2023-08-12T12:21:52.846Z,30.51
2023-08-12T12:24:21.377Z,30.46
2023-08-12T12:26:50.130Z,29.68
2023-08-12T12:29:17.629Z,29.44
2023-08-12T12:31:45.144Z,30.07
2023-08-12T12:34:14.850Z,30.51
2023-08-12T12:36:42.781Z,30.37
2023-08-12T12:39:11.302Z,30.39
2023-08-12T12:41:40.359Z,29.87
2023-08-12T12:44:08.329Z,30.06
2023-08-12T12:46:37.632Z,28.98
2023-08-12T12:49:05.529Z,28.80
2023-08-12T12:51:33.882Z,29.03
2023-08-12T12:54:01.527Z,28.82
2023-08-12T12:56:32.464Z,28.36
2023-08-12T12:59:10.971Z,27.33
2023-08-12T13:01:43.674Z,27.99
2023-08-12T13:04:14.348Z,28.61
2023-08-12T13:06:49.874Z,27.95
2023-08-12T13:09:17.814Z,28.49
2023-08-12T13:11:59.376Z,27.90
2023-08-12T13:14:27.034Z,27.40
2023-08-12T13:16:55.354Z,27.71
2023-08-12T13:19:23.116Z,27.71
2023-08-12T13:21:51.471Z,27.36
2023-08-12T13:24:20.890Z,28.02
2023-08-12T13:26:49.284Z,27.51
2023-08-12T13:29:21.267Z,28.76
2023-08-12T13:31:48.706Z,29.19
2023-08-12T13:34:17.022Z,29.67
2023-08-12T13:36:45.486Z,30.83
2023-08-12T13:39:14.754Z,30.74
2023-08-12T13:41:44.187Z,31.20
2023-08-12T13:44:12.878Z,31.55
2023-08-12T13:46:47.664Z,30.88
2023-08-12T13:49:15.485Z,31.03
2023-08-12T13:51:44.245Z,32.93
2023-08-12T13:54:13.819Z,31.69
2023-08-12T13:56:41.272Z,31.75
2023-08-12T13:59:08.932Z,31.31
2023-08-12T14:01:36.704Z,31.17
2023-08-12T14:04:09.481Z,31.14
2023-08-12T14:06:40.787Z,31.23
2023-08-12T14:09:14.406Z,31.96
2023-08-12T14:11:42.254Z,32.38
2023-08-12T14:14:09.817Z,31.99
2023-08-12T14:16:37.922Z,32.09
2023-08-12T14:19:25.331Z,32.01
2023-08-12T14:21:52.650Z,31.20
2023-08-12T14:24:20.244Z,32.31
2023-08-12T14:26:48.334Z,32.54
2023-08-12T14:29:16.075Z,32.33
2023-08-12T14:31:43.319Z,33.15
2023-08-12T14:34:10.454Z,28.55
2023-08-12T14:36:37.608Z,28.40
2023-08-12T14:39:04.855Z,28.62
2023-08-12T14:41:31.976Z,27.70
2023-08-12T14:43:59.099Z,24.48
2023-08-12T14:46:26.480Z,25.42
2023-08-12T14:48:54.652Z,25.22
2023-08-12T14:51:21.849Z,25.67
2023-08-12T14:53:49.074Z,26.13
2023-08-12T14:56:16.800Z,25.73
2023-08-12T14:58:43.947Z,28.03
2023-08-12T15:01:11.410Z,27.53
2023-08-12T15:03:38.617Z,28.07
2023-08-12T15:06:06.552Z,29.02
2023-08-12T15:08:33.972Z,29.37
2023-08-12T15:11:01.256Z,29.93
2023-08-12T15:13:28.352Z,29.69
2023-08-12T15:15:55.808Z,29.23
2023-08-12T15:18:23.640Z,30.98
2023-08-12T15:20:51.454Z,30.54
2023-08-12T15:23:18.626Z,31.26
2023-08-12T15:25:46.287Z,31.60
2023-08-12T15:28:13.934Z,31.88
2023-08-12T15:30:41.210Z,32.40
2023-08-12T15:33:08.517Z,32.34
2023-08-12T15:35:38.634Z,32.27
2023-08-12T15:38:06.102Z,32.75
2023-08-12T15:40:33.601Z,32.87
2023-08-12T15:43:01.270Z,32.49
2023-08-12T15:45:29.265Z,33.09
2023-08-12T15:48:09.367Z,33.06
2023-08-12T15:50:38.790Z,32.98
2023-08-12T15:53:11.114Z,32.88
2023-08-12T15:55:52.737Z,33.48
2023-08-12T15:58:24.771Z,33.65
2023-08-12T16:00:54.157Z,33.60
2023-08-12T16:03:21.849Z,33.45
2023-08-12T16:05:49.601Z,33.86
2023-08-12T16:08:17.643Z,34.28
2023-08-12T16:10:45.125Z,34.60
2023-08-12T16:13:12.562Z,34.42
2023-08-12T16:15:39.970Z,34.51
2023-08-12T16:18:09.276Z,33.83
2023-08-12T16:20:37.629Z,34.34
2023-08-12T16:23:05.431Z,34.57
2023-08-12T16:25:33.080Z,34.26
2023-08-12T16:28:00.645Z,33.69
2023-08-12T16:30:28.448Z,33.96
2023-08-12T16:32:55.750Z,33.38
2023-08-12T16:35:23.153Z,33.34
2023-08-12T16:37:50.412Z,33.49
2023-08-12T16:40:18.921Z,33.98
2023-08-12T16:42:46.139Z,34.18
2023-08-12T16:45:13.854Z,34.24
2023-08-12T16:47:41.216Z,34.93
2023-08-12T16:50:09.067Z,34.91
2023-08-12T16:52:36.239Z,34.99
2023-08-12T16:55:04.658Z,35.35
2023-08-12T16:57:31.872Z,35.19
2023-08-12T16:59:59.093Z,34.99
2023-08-12T17:02:26.399Z,35.53
2023-08-12T17:04:53.507Z,35.61
2023-08-12T17:07:21.013Z,35.69
2023-08-12T17:09:48.199Z,36.01
2023-08-12T17:12:15.859Z,36.18
2023-08-12T17:14:43.337Z,36.77
2023-08-12T17:17:10.509Z,36.67
2023-08-12T17:19:39.485Z,37.73
2023-08-12T17:22:06.747Z,37.90
2023-08-12T17:24:33.950Z,38.36
2023-08-12T17:27:01.204Z,38.15
2023-08-12T17:29:28.417Z,37.98
2023-08-12T17:31:55.628Z,38.40
2023-08-12T17:34:22.947Z,38.59
2023-08-12T17:36:50.241Z,38.98
2023-08-12T17:39:17.921Z,38.82
2023-08-12T17:41:48.119Z,39.29
2023-08-12T17:44:16.400Z,40.29
2023-08-12T17:46:44.715Z,40.39
2023-08-12T17:49:11.994Z,41.34
2023-08-12T17:51:43.340Z,41.24
2023-08-12T17:54:10.760Z,41.63
2023-08-12T17:56:37.948Z,41.86
2023-08-12T17:59:06.127Z,41.05
2023-08-12T18:01:33.450Z,41.61
2023-08-12T18:04:01.862Z,41.40
2023-08-12T18:06:29.289Z,41.86
2023-08-12T18:08:56.548Z,42.57
2023-08-12T18:11:23.824Z,42.92
2023-08-12T18:13:51.238Z,42.93
2023-08-12T18:16:19.143Z,42.91
2023-08-12T18:18:46.436Z,41.81
2023-08-12T18:21:13.621Z,41.49
2023-08-12T18:23:41.579Z,41.48
2023-08-12T18:26:08.781Z,41.71
2023-08-12T18:28:35.992Z,41.62
2023-08-12T18:31:03.167Z,41.77
2023-08-12T18:33:30.357Z,41.43
2023-08-12T18:35:57.457Z,41.45
2023-08-12T18:38:24.785Z,41.67
2023-08-12T18:40:52.305Z,42.92
2023-08-12T18:43:19.503Z,42.83
2023-08-12T18:45:46.739Z,42.49
2023-08-12T18:48:14.003Z,42.70
2023-08-12T18:50:41.112Z,42.58
2023-08-12T18:53:08.292Z,42.64
2023-08-12T18:55:36.035Z,43.00
2023-08-12T18:58:03.354Z,43.32
2023-08-12T19:00:30.551Z,41.97
2023-08-12T19:02:57.733Z,41.58
2023-08-12T19:05:25.072Z,41.79
2023-08-12T19:07:52.282Z,41.99
2023-08-12T19:10:19.520Z,42.38
2023-08-12T19:12:46.752Z,42.42
2023-08-12T19:15:14.541Z,42.79
2023-08-12T19:17:41.806Z,44.13
2023-08-12T19:20:10.524Z,45.63
2023-08-12T19:22:37.836Z,45.90
2023-08-12T19:25:05.547Z,46.25
2023-08-12T19:27:32.766Z,46.01
2023-08-12T19:29:59.896Z,45.54
2023-08-12T19:32:27.133Z,45.25
2023-08-12T19:34:54.362Z,45.88
2023-08-12T19:37:21.845Z,46.39
2023-08-12T19:39:51.966Z,46.25
2023-08-12T19:42:20.342Z,45.62
2023-08-12T19:44:48.090Z,45.03
2023-08-12T19:47:16.304Z,43.93
2023-08-12T19:49:47.863Z,43.49
2023-08-12T19:52:16.662Z,43.23
2023-08-12T19:54:44.169Z,43.56
2023-08-12T19:57:13.333Z,43.27
2023-08-12T19:59:40.934Z,43.18
2023-08-12T20:02:12.891Z,43.42
2023-08-12T20:04:43.082Z,43.27
2023-08-12T20:07:12.648Z,43.49
2023-08-12T20:09:39.958Z,43.80
2023-08-12T20:12:09.077Z,43.70
2023-08-12T20:14:39.018Z,44.31
2023-08-12T20:17:07.193Z,44.10
2023-08-12T20:19:35.544Z,44.83
2023-08-12T20:22:03.166Z,44.66
2023-08-12T20:24:30.427Z,44.89
2023-08-12T20:26:57.914Z,44.88
2023-08-12T20:29:26.119Z,44.58
2023-08-12T20:31:54.181Z,44.90
2023-08-12T20:34:21.481Z,44.80
2023-08-12T20:36:49.227Z,44.76
2023-08-12T20:39:16.557Z,44.34
2023-08-12T20:41:43.769Z,44.08
2023-08-12T20:44:10.965Z,44.19
2023-08-12T20:46:38.303Z,44.37
2023-08-12T20:49:06.129Z,44.47
2023-08-12T20:51:33.320Z,44.57
2023-08-12T20:54:00.567Z,44.51
2023-08-12T20:56:27.992Z,44.36
2023-08-12T20:58:55.165Z,44.27
2023-08-12T21:01:22.424Z,44.18
2023-08-12T21:03:49.650Z,44.11
2023-08-12T21:06:17.030Z,44.31
2023-08-12T21:08:44.187Z,44.15
2023-08-12T21:11:12.163Z,44.74
2023-08-12T21:13:39.398Z,44.65
2023-08-12T21:16:06.701Z,44.50
2023-08-12T21:18:34.198Z,44.62
2023-08-12T21:21:01.469Z,44.75
2023-08-12T21:23:28.636Z,45.06
2023-08-12T21:25:55.809Z,44.92
2023-08-12T21:28:22.988Z,44.57
2023-08-12T21:30:50.193Z,44.78
2023-08-12T21:33:18.109Z,44.14
2023-08-12T21:35:45.256Z,43.80
2023-08-12T21:38:12.456Z,43.73
2023-08-12T21:40:40.236Z,43.62
2023-08-12T21:43:07.556Z,43.66
2023-08-12T21:45:34.833Z,43.77
2023-08-12T21:48:02.164Z,43.82
2023-08-12T21:50:30.959Z,44.04
2023-08-12T21:52:58.803Z,43.77
2023-08-12T21:55:26.079Z,43.66
2023-08-12T21:57:55.579Z,43.48
2023-08-12T22:00:23.871Z,43.82
2023-08-12T22:02:51.100Z,43.91
2023-08-12T22:05:18.580Z,43.81
2023-08-12T22:07:45.879Z,43.83
2023-08-12T22:10:13.173Z,43.90
2023-08-12T22:12:41.632Z,43.91
2023-08-12T22:15:09.525Z,44.37
2023-08-12T22:17:37.263Z,44.09
2023-08-12T22:20:05.077Z,44.69
2023-08-12T22:22:32.304Z,45.05
2023-08-12T22:24:59.453Z,44.69
2023-08-12T22:27:27.199Z,45.14
2023-08-12T22:29:54.370Z,44.74
2023-08-12T22:32:22.152Z,44.69
2023-08-12T22:34:49.350Z,44.68
2023-08-12T22:37:16.571Z,44.19
2023-08-12T22:39:43.744Z,44.32
2023-08-12T22:42:10.908Z,44.74
2023-08-12T22:44:38.137Z,44.19
2023-08-12T22:47:05.697Z,43.56
2023-08-12T22:49:32.959Z,43.79
2023-08-12T22:52:00.283Z,43.50
2023-08-12T22:54:27.608Z,44.60
2023-08-12T22:56:54.754Z,44.58
2023-08-12T22:59:21.924Z,44.77
2023-08-12T23:01:49.077Z,45.00
2023-08-12T23:04:16.401Z,44.63
2023-08-12T23:06:43.576Z,44.96
2023-08-12T23:09:10.808Z,44.81
2023-08-12T23:11:38.296Z,45.56
2023-08-12T23:14:05.532Z,45.03
2023-08-12T23:16:32.902Z,45.60
2023-08-12T23:19:00.227Z,45.92
2023-08-12T23:21:27.367Z,46.12
2023-08-12T23:23:54.587Z,46.15
2023-08-12T23:26:22.015Z,46.27
2023-08-12T23:28:49.190Z,46.41
2023-08-12T23:31:16.341Z,46.27
2023-08-12T23:33:43.572Z,46.23
2023-08-12T23:36:10.753Z,46.25
2023-08-12T23:38:37.879Z,46.91
2023-08-12T23:41:05.152Z,47.24
2023-08-12T23:43:32.584Z,47.47
2023-08-12T23:46:03.283Z,48.13
2023-08-12T23:48:30.631Z,47.88
2023-08-12T23:50:57.869Z,48.49
2023-08-12T23:53:26.156Z,48.47
2023-08-12T23:55:53.436Z,48.09
2023-08-12T23:58:21.347Z,48.27
